createdAt,value
2018-02-24T00:00:02.670Z,99.90
2018-02-24T00:02:30.907Z,99.90
2018-02-24T00:04:58.449Z,99.90
2018-02-24T00:07:25.908Z,99.90
2018-02-24T00:09:53.387Z,99.90
2018-02-24T00:12:20.875Z,99.90
2018-02-24T00:14:49.106Z,99.90
2018-02-24T00:17:16.568Z,99.90
2018-02-24T00:19:44.068Z,99.90
2018-02-24T00:22:14.020Z,99.90
2018-02-24T00:24:41.577Z,99.90
2018-02-24T00:27:09.046Z,99.90
2018-02-24T00:29:36.514Z,99.90
2018-02-24T00:32:03.983Z,99.90
2018-02-24T00:34:31.503Z,99.90
2018-02-24T00:36:59.062Z,99.90
2018-02-24T00:39:26.516Z,99.90
2018-02-24T00:41:54.081Z,99.90
2018-02-24T00:44:21.548Z,99.90
2018-02-24T00:46:49.034Z,99.90
2018-02-24T00:49:17.282Z,99.90
2018-02-24T00:51:44.743Z,99.90
2018-02-24T00:54:12.240Z,99.90
2018-02-24T00:56:40.479Z,99.90
2018-02-24T00:59:07.956Z,99.90
2018-02-24T01:01:35.444Z,99.90
2018-02-24T01:04:03.686Z,99.90
2018-02-24T01:06:31.146Z,99.90
2018-02-24T01:08:58.627Z,99.90
2018-02-24T01:11:26.863Z,99.90
2018-02-24T01:13:54.387Z,99.90
2018-02-24T01:16:21.872Z,99.90
2018-02-24T01:18:49.333Z,99.90
2018-02-24T01:21:16.962Z,99.90
2018-02-24T01:23:44.518Z,99.90
2018-02-24T01:26:12.078Z,99.90
2018-02-24T01:28:39.534Z,99.90
2018-02-24T01:31:07.093Z,99.90
2018-02-24T01:33:34.651Z,99.90
2018-02-24T01:36:02.114Z,99.90
2018-02-24T01:38:29.605Z,99.90
2018-02-24T01:40:57.081Z,99.90
2018-02-24T01:43:25.322Z,99.90
2018-02-24T01:45:52.805Z,99.90
2018-02-24T01:48:21.042Z,99.90
2018-02-24T01:50:48.515Z,99.90
2018-02-24T01:53:15.997Z,99.90
2018-02-24T01:55:43.546Z,99.90
2018-02-24T01:58:11.024Z,99.90
2018-02-24T02:00:39.340Z,99.90
2018-02-24T02:03:06.813Z,99.90
2018-02-24T02:05:34.278Z,99.90
2018-02-24T02:08:01.770Z,99.90
2018-02-24T02:10:30.015Z,99.90
2018-02-24T02:12:57.533Z,99.90
2018-02-24T02:15:25.092Z,99.90
2018-02-24T02:17:52.616Z,99.90
2018-02-24T02:20:20.863Z,99.90
2018-02-24T02:22:49.113Z,99.90
2018-02-24T02:25:16.664Z,99.90
2018-02-24T02:27:44.113Z,99.90
2018-02-24T02:30:11.615Z,99.90
2018-02-24T02:32:39.095Z,99.90
2018-02-24T02:35:07.404Z,99.90
2018-02-24T02:37:34.899Z,99.90
2018-02-24T02:40:02.366Z,99.90
2018-02-24T02:42:29.835Z,99.90
2018-02-24T02:44:58.093Z,99.90
2018-02-24T02:47:25.561Z,99.90
2018-02-24T02:49:53.030Z,99.90
2018-02-24T02:52:21.277Z,99.90
2018-02-24T02:54:48.750Z,99.90
2018-02-24T02:57:16.208Z,99.90
2018-02-24T02:59:44.464Z,99.90
2018-02-24T03:02:11.937Z,99.90
2018-02-24T03:04:39.402Z,99.90
2018-02-24T03:07:07.674Z,99.90
2018-02-24T03:09:35.910Z,99.90
2018-02-24T03:12:03.390Z,99.90
2018-02-24T03:14:31.005Z,99.90
2018-02-24T03:16:58.469Z,99.90
2018-02-24T03:19:25.949Z,99.90
2018-02-24T03:21:53.422Z,99.90
2018-02-24T03:24:20.894Z,99.90
2018-02-24T03:26:48.365Z,99.90
2018-02-24T03:29:16.594Z,99.90
2018-02-24T03:31:44.120Z,99.90
2018-02-24T03:34:11.677Z,99.90
2018-02-24T03:36:39.140Z,99.90
2018-02-24T03:39:06.606Z,99.90
2018-02-24T03:41:34.099Z,99.90
2018-02-24T03:44:01.571Z,99.90
2018-02-24T03:46:29.811Z,99.90
2018-02-24T03:48:57.315Z,99.90
2018-02-24T03:51:24.793Z,99.90
2018-02-24T03:53:52.255Z,99.90
2018-02-24T03:56:19.756Z,99.90
2018-02-24T03:58:47.226Z,99.90
2018-02-24T04:01:15.538Z,99.90
2018-02-24T04:03:43.018Z,99.90
2018-02-24T04:06:10.497Z,99.90
2018-02-24T04:08:38.009Z,99.90
2018-02-24T04:11:05.572Z,99.90
2018-02-24T04:13:33.042Z,99.90
2018-02-24T04:16:00.633Z,99.90
2018-02-24T04:18:28.070Z,99.90
2018-02-24T04:20:55.544Z,99.90
2018-02-24T04:23:23.017Z,99.90
2018-02-24T04:25:51.254Z,99.90
2018-02-24T04:28:18.722Z,99.90
2018-02-24T04:30:46.252Z,99.90
2018-02-24T04:33:14.452Z,99.90
2018-02-24T04:35:41.916Z,99.90
2018-02-24T04:38:09.410Z,99.90
2018-02-24T04:40:36.989Z,99.90
2018-02-24T04:43:04.449Z,99.90
2018-02-24T04:45:31.935Z,99.90
2018-02-24T04:47:59.395Z,99.90
2018-02-24T04:50:26.863Z,99.90
2018-02-24T04:52:54.372Z,99.90
2018-02-24T04:55:21.834Z,99.90
2018-02-24T04:57:49.303Z,99.90
2018-02-24T05:00:16.775Z,99.90
2018-02-24T05:02:44.249Z,99.90
2018-02-24T05:05:11.722Z,99.90
2018-02-24T05:07:39.978Z,99.90
2018-02-24T05:10:07.449Z,99.90
2018-02-24T05:12:35.679Z,99.90
2018-02-24T05:15:03.161Z,99.90
2018-02-24T05:17:30.626Z,99.90
2018-02-24T05:19:58.131Z,99.90
2018-02-24T05:22:25.605Z,99.90
2018-02-24T05:24:53.135Z,99.90
2018-02-24T05:27:20.542Z,99.90
2018-02-24T05:29:49.527Z,99.90
2018-02-24T05:32:16.996Z,99.90
2018-02-24T05:34:44.466Z,99.90
2018-02-24T05:37:12.731Z,99.90
2018-02-24T05:39:40.205Z,99.90
2018-02-24T05:42:08.446Z,99.90
2018-02-24T05:44:35.946Z,99.90
2018-02-24T05:47:04.186Z,99.90
2018-02-24T05:49:31.670Z,99.90
2018-02-24T05:51:59.911Z,99.90
2018-02-24T05:54:27.377Z,99.90
2018-02-24T05:56:54.918Z,99.90
2018-02-24T05:59:22.378Z,99.90
2018-02-24T06:01:49.839Z,99.90
2018-02-24T06:04:17.347Z,99.90
2018-02-24T06:06:44.803Z,99.90
2018-02-24T06:09:12.274Z,99.90
2018-02-24T06:11:39.775Z,99.90
2018-02-24T06:14:07.243Z,99.90
2018-02-24T06:16:35.514Z,99.90
2018-02-24T06:19:03.007Z,99.90
2018-02-24T06:21:30.475Z,99.90
2018-02-24T06:23:57.935Z,99.90
2018-02-24T06:26:25.414Z,99.90
2018-02-24T06:28:52.878Z,99.90
2018-02-24T06:31:20.410Z,99.90
2018-02-24T06:33:47.871Z,99.90
2018-02-24T06:36:15.343Z,99.90
2018-02-24T06:38:43.447Z,99.90
2018-02-24T06:41:10.966Z,99.90
2018-02-24T06:43:42.586Z,99.90
2018-02-24T06:46:10.362Z,99.90
2018-02-24T06:48:37.823Z,99.90
2018-02-24T06:51:05.300Z,99.90
2018-02-24T06:53:32.778Z,99.90
2018-02-24T06:56:00.246Z,99.90
2018-02-24T06:58:28.483Z,99.90
2018-02-24T07:00:55.966Z,99.90
2018-02-24T07:03:23.451Z,99.90
2018-02-24T07:05:51.683Z,99.90
2018-02-24T07:08:19.166Z,99.90
2018-02-24T07:10:47.399Z,99.90
2018-02-24T07:13:14.887Z,99.90
2018-02-24T07:15:43.266Z,99.90
2018-02-24T07:18:10.735Z,99.90
2018-02-24T07:20:38.969Z,99.90
2018-02-24T07:23:06.466Z,99.90
2018-02-24T07:25:33.923Z,99.90
2018-02-24T07:28:02.149Z,99.90
2018-02-24T07:30:29.656Z,99.90
2018-02-24T07:32:57.149Z,99.40
2018-02-24T07:35:24.623Z,99.40
2018-02-24T07:37:52.097Z,99.20
2018-02-24T07:40:20.747Z,98.80
2018-02-24T07:42:48.227Z,98.50
2018-02-24T07:45:15.706Z,98.40
2018-02-24T07:47:43.166Z,98.10
2018-02-24T07:50:10.632Z,97.30
2018-02-24T07:52:38.880Z,96.30
2018-02-24T07:55:06.338Z,96.30
2018-02-24T07:57:33.868Z,95.70
2018-02-24T08:00:01.374Z,95.90
2018-02-24T08:02:29.610Z,96.10
2018-02-24T08:04:57.111Z,95.70
2018-02-24T08:07:24.577Z,96.20
2018-02-24T08:09:52.820Z,97.40
2018-02-24T08:12:20.319Z,97.30
2018-02-24T08:14:48.542Z,96.70
2018-02-24T08:17:16.073Z,96.70
2018-02-24T08:19:43.511Z,95.90
2018-02-24T08:22:12.840Z,95.60
2018-02-24T08:24:40.334Z,94.70
2018-02-24T08:27:08.562Z,94.30
2018-02-24T08:29:36.040Z,94.30
2018-02-24T08:32:03.528Z,94.70
2018-02-24T08:34:31.768Z,92.50
2018-02-24T08:36:59.246Z,92.50
2018-02-24T08:39:26.791Z,91.00
2018-02-24T08:41:54.262Z,86.20
2018-02-24T08:44:22.203Z,84.90
2018-02-24T08:46:49.712Z,85.10
2018-02-24T08:49:18.034Z,81.90
2018-02-24T08:51:45.516Z,81.80
2018-02-24T08:54:12.990Z,76.60
2018-02-24T08:56:41.238Z,72.50
2018-02-24T08:59:08.726Z,71.80
2018-02-24T09:01:36.227Z,71.50
2018-02-24T09:04:03.690Z,73.30
2018-02-24T09:06:31.183Z,72.20
2018-02-24T09:08:58.670Z,72.80
2018-02-24T09:11:26.252Z,73.90
2018-02-24T09:13:53.734Z,73.40
2018-02-24T09:16:21.207Z,73.40
2018-02-24T09:18:49.438Z,73.20
2018-02-24T09:21:16.936Z,73.20
2018-02-24T09:23:44.405Z,74.20
2018-02-24T09:26:12.655Z,74.20
2018-02-24T09:28:40.158Z,74.20
2018-02-24T09:31:07.626Z,73.20
2018-02-24T09:33:35.102Z,72.50
2018-02-24T09:36:02.599Z,74.30
2018-02-24T09:38:30.055Z,71.80
2018-02-24T09:40:57.571Z,71.40
2018-02-24T09:43:25.062Z,67.80
2018-02-24T09:45:52.548Z,68.00
2018-02-24T09:48:20.007Z,68.80
2018-02-24T09:50:48.265Z,65.50
2018-02-24T09:53:15.747Z,65.50
2018-02-24T09:55:44.003Z,63.60
2018-02-24T09:58:11.486Z,63.60
2018-02-24T10:00:38.966Z,59.90
2018-02-24T10:03:06.452Z,60.40
2018-02-24T10:05:33.955Z,59.70
2018-02-24T10:08:02.186Z,56.90
2018-02-24T10:10:29.664Z,56.90
2018-02-24T10:12:57.133Z,57.80
2018-02-24T10:15:25.378Z,54.90
2018-02-24T10:17:52.894Z,54.90
2018-02-24T10:20:20.347Z,54.70
2018-02-24T10:22:47.805Z,52.90
2018-02-24T10:25:15.315Z,51.80
2018-02-24T10:27:42.781Z,53.30
2018-02-24T10:30:11.019Z,49.90
2018-02-24T10:32:38.504Z,49.40
2018-02-24T10:35:05.991Z,47.40
2018-02-24T10:37:34.244Z,48.40
2018-02-24T10:40:03.223Z,47.90
2018-02-24T10:42:31.465Z,48.40
2018-02-24T10:44:58.928Z,48.40
2018-02-24T10:47:26.398Z,48.90
2018-02-24T10:49:53.855Z,49.20
2018-02-24T10:52:21.307Z,47.20
2018-02-24T10:54:51.079Z,48.60
2018-02-24T10:57:18.539Z,48.30
2018-02-24T10:59:46.023Z,46.50
2018-02-24T11:02:13.499Z,47.10
2018-02-24T11:04:40.974Z,47.60
2018-02-24T11:07:08.431Z,46.90
2018-02-24T11:09:36.684Z,46.50
2018-02-24T11:12:04.139Z,46.40
2018-02-24T11:14:31.614Z,43.70
2018-02-24T11:16:59.119Z,45.10
2018-02-24T11:19:26.574Z,45.10
2018-02-24T11:21:54.041Z,45.90
2018-02-24T11:24:21.511Z,46.00
2018-02-24T11:26:48.989Z,45.00
2018-02-24T11:29:16.443Z,44.70
2018-02-24T11:31:43.912Z,45.40
2018-02-24T11:34:11.365Z,44.30
2018-02-24T11:36:40.210Z,46.80
2018-02-24T11:39:07.662Z,46.00
2018-02-24T11:41:35.128Z,46.70
2018-02-24T11:44:02.615Z,47.00
2018-02-24T11:46:30.854Z,46.40
2018-02-24T11:48:58.385Z,46.40
2018-02-24T11:51:25.907Z,47.70
2018-02-24T11:53:53.388Z,48.40
2018-02-24T11:56:21.623Z,49.60
2018-02-24T11:58:49.123Z,49.70
2018-02-24T12:01:17.362Z,49.80
2018-02-24T12:03:44.933Z,49.70
2018-02-24T12:06:12.407Z,49.00
2018-02-24T12:08:40.634Z,50.30
2018-02-24T12:11:08.107Z,50.30
2018-02-24T12:13:35.575Z,49.50
2018-02-24T12:16:04.544Z,50.40
2018-02-24T12:18:32.011Z,50.40
2018-02-24T12:20:59.487Z,50.80
2018-02-24T12:23:27.004Z,51.60
2018-02-24T12:25:54.484Z,51.30
2018-02-24T12:28:21.963Z,51.30
2018-02-24T12:30:50.203Z,52.30
2018-02-24T12:33:17.742Z,52.30
2018-02-24T12:35:45.223Z,51.00
2018-02-24T12:38:12.701Z,51.30
2018-02-24T12:40:40.184Z,53.00
2018-02-24T12:43:08.443Z,52.40
2018-02-24T12:45:37.310Z,54.50
2018-02-24T12:48:04.811Z,54.40
2018-02-24T12:50:32.281Z,53.30
2018-02-24T12:52:59.743Z,54.10
2018-02-24T12:55:28.131Z,54.10
2018-02-24T12:57:55.590Z,54.90
2018-02-24T13:00:23.078Z,56.20
2018-02-24T13:02:51.309Z,55.70
2018-02-24T13:05:18.781Z,55.60
2018-02-24T13:07:46.272Z,55.20
2018-02-24T13:10:13.738Z,57.10
2018-02-24T13:12:41.970Z,58.20
2018-02-24T13:15:09.438Z,58.20
2018-02-24T13:17:36.917Z,58.70
2018-02-24T13:20:05.919Z,58.90
2018-02-24T13:22:34.155Z,59.40
2018-02-24T13:25:01.634Z,59.20
2018-02-24T13:27:29.111Z,60.60
2018-02-24T13:29:57.346Z,59.60
2018-02-24T13:32:24.881Z,59.70
2018-02-24T13:34:53.070Z,59.70
2018-02-24T13:37:20.560Z,59.70
2018-02-24T13:39:48.016Z,61.50
2018-02-24T13:42:15.568Z,61.90
2018-02-24T13:44:43.051Z,64.10
2018-02-24T13:47:11.300Z,65.80
2018-02-24T13:49:39.557Z,68.90
2018-02-24T13:52:07.015Z,68.60
2018-02-24T13:54:34.522Z,67.80
2018-02-24T13:57:02.895Z,68.80
2018-02-24T13:59:31.127Z,70.70
2018-02-24T14:01:58.649Z,70.70
2018-02-24T14:04:26.111Z,72.10
2018-02-24T14:06:53.592Z,71.50
2018-02-24T14:09:21.075Z,73.40
2018-02-24T14:11:48.556Z,75.80
2018-02-24T14:14:16.027Z,75.10
2018-02-24T14:16:43.494Z,75.30
2018-02-24T14:19:10.988Z,76.40
2018-02-24T14:21:38.429Z,79.00
2018-02-24T14:24:05.946Z,79.00
2018-02-24T14:26:33.404Z,80.70
2018-02-24T14:29:00.904Z,81.00
2018-02-24T14:31:28.365Z,81.10
2018-02-24T14:33:55.871Z,82.20
2018-02-24T14:36:23.355Z,82.20
2018-02-24T14:38:50.807Z,81.90
2018-02-24T14:41:18.314Z,82.40
2018-02-24T14:43:46.540Z,82.40
2018-02-24T14:46:14.954Z,82.20
2018-02-24T14:48:42.415Z,84.20
2018-02-24T14:51:09.887Z,84.00
2018-02-24T14:53:38.131Z,84.10
2018-02-24T14:56:05.654Z,83.30
2018-02-24T14:58:33.222Z,85.30
2018-02-24T15:01:00.691Z,84.90
2018-02-24T15:03:28.166Z,87.10
2018-02-24T15:05:55.656Z,86.90
2018-02-24T15:08:23.932Z,88.20
2018-02-24T15:10:51.439Z,88.10
2018-02-24T15:13:18.903Z,88.80
2018-02-24T15:15:46.369Z,88.70
2018-02-24T15:18:13.857Z,90.20
2018-02-24T15:20:42.092Z,90.50
2018-02-24T15:23:09.566Z,90.50
2018-02-24T15:25:37.039Z,89.90
2018-02-24T15:28:05.276Z,90.60
2018-02-24T15:30:32.785Z,90.60
2018-02-24T15:33:00.234Z,90.80
2018-02-24T15:35:28.501Z,90.60
2018-02-24T15:37:56.758Z,89.90
2018-02-24T15:40:24.222Z,89.80
2018-02-24T15:42:52.897Z,91.00
2018-02-24T15:45:20.364Z,90.70
2018-02-24T15:47:48.613Z,90.80
2018-02-24T15:50:16.094Z,90.80
2018-02-24T15:52:44.365Z,91.60
2018-02-24T15:55:11.846Z,91.60
2018-02-24T15:57:39.335Z,91.50
2018-02-24T16:00:06.818Z,91.80
2018-02-24T16:02:34.297Z,93.00
2018-02-24T16:05:01.778Z,93.10
2018-02-24T16:07:29.246Z,93.60
2018-02-24T16:09:56.751Z,94.30
2018-02-24T16:12:24.224Z,94.90
2018-02-24T16:14:52.462Z,95.80
2018-02-24T16:17:19.947Z,95.70
2018-02-24T16:19:47.402Z,96.00
2018-02-24T16:22:14.890Z,96.40
2018-02-24T16:24:43.131Z,97.40
2018-02-24T16:27:10.602Z,97.50
2018-02-24T16:29:38.871Z,98.60
2018-02-24T16:32:06.326Z,98.60
2018-02-24T16:34:33.796Z,98.50
2018-02-24T16:37:02.062Z,99.10
2018-02-24T16:39:29.542Z,99.10
2018-02-24T16:41:57.799Z,99.90
2018-02-24T16:44:26.035Z,99.90
2018-02-24T16:46:53.500Z,99.90
2018-02-24T16:49:21.464Z,99.90
2018-02-24T16:51:48.932Z,99.90
2018-02-24T16:54:16.402Z,99.90
2018-02-24T16:56:43.888Z,99.90
2018-02-24T16:59:12.133Z,99.90
2018-02-24T17:01:40.863Z,99.90
2018-02-24T17:04:08.364Z,99.90
2018-02-24T17:06:35.827Z,99.90
2018-02-24T17:09:03.292Z,99.90
2018-02-24T17:11:30.788Z,99.90
2018-02-24T17:13:58.261Z,99.90
2018-02-24T17:16:25.748Z,99.90
2018-02-24T17:18:54.075Z,99.90
2018-02-24T17:21:21.539Z,99.90
2018-02-24T17:23:49.039Z,99.90
2018-02-24T17:26:16.518Z,99.90
2018-02-24T17:28:43.979Z,99.90
2018-02-24T17:31:12.235Z,99.90
2018-02-24T17:33:39.687Z,99.90
2018-02-24T17:36:07.153Z,99.90
2018-02-24T17:38:34.640Z,99.90
2018-02-24T17:41:02.880Z,99.90
2018-02-24T17:43:31.284Z,99.90
2018-02-24T17:45:59.509Z,99.90
2018-02-24T17:48:27.012Z,99.90
2018-02-24T17:50:55.255Z,99.90
2018-02-24T17:53:22.733Z,99.90
2018-02-24T17:55:50.217Z,99.90
2018-02-24T17:58:17.673Z,99.90
2018-02-24T18:00:45.151Z,99.90
2018-02-24T18:03:12.678Z,99.90
2018-02-24T18:05:40.911Z,99.90
2018-02-24T18:08:08.371Z,99.90
2018-02-24T18:10:35.860Z,99.90
2018-02-24T18:13:04.086Z,99.90
2018-02-24T18:15:31.538Z,99.90
2018-02-24T18:17:59.012Z,99.90
2018-02-24T18:20:26.468Z,99.90
2018-02-24T18:22:53.932Z,99.90
2018-02-24T18:25:21.427Z,99.90
2018-02-24T18:27:48.876Z,99.90
2018-02-24T18:30:16.327Z,99.90
2018-02-24T18:32:44.587Z,99.90
2018-02-24T18:35:12.049Z,99.90
2018-02-24T18:37:40.279Z,99.90
2018-02-24T18:40:07.771Z,99.90
2018-02-24T18:42:35.238Z,99.90
2018-02-24T18:45:03.479Z,99.90
2018-02-24T18:47:30.969Z,99.90
2018-02-24T18:49:58.437Z,99.90
2018-02-24T18:52:26.675Z,99.90
2018-02-24T18:54:54.163Z,99.90
2018-02-24T18:57:22.439Z,99.40
2018-02-24T18:59:50.672Z,99.80
2018-02-24T19:02:18.172Z,99.80
2018-02-24T19:04:46.431Z,99.40
2018-02-24T19:07:13.907Z,99.30
2018-02-24T19:09:42.155Z,99.10
2018-02-24T19:12:09.628Z,99.10
2018-02-24T19:14:37.884Z,98.20
2018-02-24T19:17:05.388Z,98.20
2018-02-24T19:19:32.868Z,98.00
2018-02-24T19:22:00.324Z,97.90
2018-02-24T19:24:27.884Z,97.60
2018-02-24T19:26:55.339Z,98.30
2018-02-24T19:29:22.818Z,98.10
2018-02-24T19:31:50.311Z,97.90
2018-02-24T19:34:18.545Z,97.60
2018-02-24T19:36:46.023Z,97.50
2018-02-24T19:39:13.487Z,97.30
2018-02-24T19:41:41.773Z,97.70
2018-02-24T19:44:10.019Z,97.00
2018-02-24T19:46:37.512Z,97.00
2018-02-24T19:49:05.745Z,97.70
2018-02-24T19:51:33.219Z,97.60
2018-02-24T19:54:00.716Z,97.70
2018-02-24T19:56:28.192Z,96.90
2018-02-24T19:58:55.651Z,97.20
2018-02-24T20:01:23.131Z,97.10
2018-02-24T20:03:50.599Z,97.80
2018-02-24T20:06:18.095Z,97.90
2018-02-24T20:08:45.595Z,97.90
2018-02-24T20:11:13.062Z,98.00
2018-02-24T20:13:41.315Z,97.80
2018-02-24T20:16:08.776Z,97.80
2018-02-24T20:18:36.257Z,97.90
2018-02-24T20:21:03.828Z,97.90
2018-02-24T20:23:31.242Z,97.70
2018-02-24T20:25:58.698Z,97.50
2018-02-24T20:28:26.184Z,97.40
2018-02-24T20:30:53.658Z,97.70
2018-02-24T20:33:21.930Z,98.40
2018-02-24T20:35:49.432Z,98.30
2018-02-24T20:38:16.902Z,98.10
2018-02-24T20:40:44.380Z,98.30
2018-02-24T20:43:11.873Z,98.30
2018-02-24T20:45:40.146Z,98.30
2018-02-24T20:48:08.395Z,98.50
2018-02-24T20:50:35.874Z,98.40
2018-02-24T20:53:04.146Z,98.80
2018-02-24T20:55:32.399Z,98.30
2018-02-24T20:57:59.872Z,98.60
2018-02-24T21:00:28.120Z,99.20
2018-02-24T21:02:55.583Z,98.80
2018-02-24T21:05:23.151Z,98.60
2018-02-24T21:07:50.623Z,99.20
2018-02-24T21:10:18.878Z,99.90
2018-02-24T21:12:46.403Z,99.80
2018-02-24T21:15:13.886Z,99.40
2018-02-24T21:17:41.409Z,99.50
2018-02-24T21:20:08.877Z,99.50
2018-02-24T21:22:36.378Z,99.80
2018-02-24T21:25:04.631Z,99.90
2018-02-24T21:27:32.136Z,99.90
2018-02-24T21:29:59.627Z,99.90
2018-02-24T21:32:27.090Z,99.90
2018-02-24T21:34:54.578Z,99.90
2018-02-24T21:37:22.070Z,99.90
2018-02-24T21:39:49.539Z,99.90
2018-02-24T21:42:16.998Z,99.90
2018-02-24T21:44:44.487Z,99.90
2018-02-24T21:47:12.827Z,99.90
2018-02-24T21:49:40.313Z,99.90
2018-02-24T21:52:07.832Z,99.90
2018-02-24T21:54:37.288Z,99.90
2018-02-24T21:57:04.754Z,99.90
2018-02-24T21:59:32.231Z,99.90
2018-02-24T22:01:59.703Z,99.90
2018-02-24T22:04:27.171Z,99.90
2018-02-24T22:06:54.707Z,99.90
2018-02-24T22:09:22.953Z,99.90
2018-02-24T22:11:50.424Z,99.90
2018-02-24T22:14:18.679Z,99.90
2018-02-24T22:16:46.146Z,99.90
2018-02-24T22:19:13.654Z,99.90
2018-02-24T22:21:41.213Z,99.90
2018-02-24T22:24:08.676Z,99.80
2018-02-24T22:26:36.146Z,99.90
2018-02-24T22:29:03.623Z,99.90
2018-02-24T22:31:31.078Z,99.90
2018-02-24T22:33:58.582Z,99.90
2018-02-24T22:36:26.037Z,99.90
2018-02-24T22:38:53.530Z,99.90
2018-02-24T22:41:20.999Z,99.90
2018-02-24T22:43:48.514Z,99.90
2018-02-24T22:46:16.920Z,99.90
2018-02-24T22:48:50.114Z,99.90
2018-02-24T22:51:17.572Z,99.90
2018-02-24T22:53:45.047Z,99.90
2018-02-24T22:56:12.543Z,99.90
2018-02-24T22:58:40.113Z,99.90
2018-02-24T23:01:07.671Z,99.90
2018-02-24T23:03:35.156Z,99.90
2018-02-24T23:06:02.617Z,99.90
2018-02-24T23:08:30.076Z,99.90
2018-02-24T23:10:57.604Z,99.90
2018-02-24T23:13:25.156Z,99.90
2018-02-24T23:15:52.647Z,99.90
2018-02-24T23:18:20.172Z,99.90
2018-02-24T23:20:47.643Z,99.90
2018-02-24T23:23:15.130Z,99.90
2018-02-24T23:25:44.136Z,99.90
2018-02-24T23:28:11.597Z,99.90
2018-02-24T23:30:39.832Z,99.90
2018-02-24T23:33:07.319Z,99.90
2018-02-24T23:35:34.787Z,99.90
2018-02-24T23:38:03.056Z,99.90
2018-02-24T23:40:30.554Z,99.90
2018-02-24T23:42:58.011Z,99.90
2018-02-24T23:45:25.496Z,99.90
2018-02-24T23:47:52.956Z,99.90
2018-02-24T23:50:20.442Z,99.90
2018-02-24T23:52:48.696Z,99.90
2018-02-24T23:55:16.162Z,99.90
2018-02-24T23:57:44.407Z,99.90
